Time;durP1;ratioP1;P1;durP2;ratioP2;P2;SDS_P1;SDS_P2;PMS_P1;PMS_P2;Temp;Humidity;BMP_temperature;BMP_pressure;BME280_temperature;BME280_humidity;BME280_pressure;Samples;Min_cycle;Max_cycle;Signal;HPM_P1;HPM_P2
2023/09/13 00:00:24;;;;;;;29.77;11.18;;;;;;;;;;5060699;28;20028;-69
2023/09/13 00:02:50;;;;;;;33.63;10.98;;;;;;;;;;5060428;28;20421;-69
2023/09/13 00:05:16;;;;;;;39.10;9.48;;;;;;;;;;5060862;28;20059;-69
2023/09/13 00:07:41;;;;;;;24.60;11.45;;;;;;;;;;5093970;28;20052;-69
2023/09/13 00:10:07;;;;;;;31.75;12.32;;;;;;;;;;5060202;28;20106;-69
2023/09/13 00:12:33;;;;;;;30.17;12.75;;;;;;;;;;5076870;28;20036;-69
2023/09/13 00:14:59;;;;;;;26.95;11.82;;;;;;;;;;5093936;28;20062;-69
2023/09/13 00:17:27;;;;;;;33.85;12.90;;;;;;;;;;5076844;28;20122;-69
2023/09/13 00:19:56;;;;;;;29.60;10.93;;;;;;;;;;5076978;28;20055;-71
2023/09/13 00:22:22;;;;;;;28.98;11.02;;;;;;;;;;5060410;28;20455;-69
2023/09/13 00:24:47;;;;;;;30.48;9.38;;;;;;;;;;5094246;28;20071;-69
2023/09/13 00:27:13;;;;;;;25.52;8.10;;;;;;;;;;5077014;28;20138;-68
2023/09/13 00:29:39;;;;;;;26.00;7.97;;;;;;;;;;5076823;28;20036;-69
2023/09/13 00:32:05;;;;;;;19.40;8.23;;;;;;;;;;5060736;28;20545;-69
2023/09/13 00:34:31;;;;;;;21.17;7.88;;;;;;;;;;5078331;28;20044;-68
2023/09/13 00:36:57;;;;;;;20.23;9.02;;;;;;;;;;5077792;28;20044;-69
2023/09/13 00:39:23;;;;;;;33.67;9.20;;;;;;;;;;5076554;28;20039;-69
2023/09/13 00:41:49;;;;;;;28.40;8.93;;;;;;;;;;5093770;28;20039;-71
2023/09/13 00:44:15;;;;;;;34.72;8.43;;;;;;;;;;5076992;28;20032;-68
2023/09/13 00:46:41;;;;;;;41.45;8.88;;;;;;;;;;5076696;28;20036;-70
2023/09/13 00:49:08;;;;;;;34.60;8.25;;;;;;;;;;5093874;28;20046;-71
2023/09/13 00:51:34;;;;;;;35.53;8.57;;;;;;;;;;5077588;28;20070;-70
2023/09/13 00:54:02;;;;;;;27.60;9.57;;;;;;;;;;5076480;28;20075;-70
2023/09/13 00:56:28;;;;;;;22.83;9.32;;;;;;;;;;5076632;28;20040;-70
2023/09/13 00:58:54;;;;;;;25.33;9.85;;;;;;;;;;5093736;28;20036;-70
2023/09/13 01:01:21;;;;;;;22.45;8.90;;;;;;;;;;5060806;28;20025;-72
2023/09/13 01:03:47;;;;;;;26.05;8.85;;;;;;;;;;5059341;28;20084;-70
2023/09/13 01:06:13;;;;;;;26.63;9.57;;;;;;;;;;5076420;28;20060;-71
2023/09/13 01:08:42;;;;;;;22.17;8.90;;;;;;;;;;5075952;28;20071;-71
2023/09/13 01:11:09;;;;;;;30.45;9.07;;;;;;;;;;5076046;28;20171;-70
2023/09/13 01:13:35;;;;;;;16.15;8.50;;;;;;;;;;5059266;28;20093;-70
2023/09/13 01:16:09;;;;;;;23.80;9.85;;;;;;;;;;5075725;28;20036;-71
2023/09/13 01:18:45;;;;;;;18.98;8.90;;;;;;;;;;5075788;28;20060;-70
2023/09/13 01:21:22;;;;;;;22.65;9.88;;;;;;;;;;5059308;28;20060;-68
2023/09/13 01:24:06;;;;;;;20.42;9.95;;;;;;;;;;5072041;28;20033;-69
2023/09/13 01:26:44;;;;;;;20.63;9.00;;;;;;;;;;5039002;28;20043;-68
2023/09/13 01:29:14;;;;;;;22.05;12.48;;;;;;;;;;5055355;28;20040;-69
2023/09/13 01:31:41;;;;;;;27.88;13.88;;;;;;;;;;5072238;28;20056;-68
2023/09/13 01:34:07;;;;;;;24.50;12.43;;;;;;;;;;5038610;28;20055;-68
2023/09/13 01:36:33;;;;;;;25.77;12.63;;;;;;;;;;5055258;28;20048;-68
2023/09/13 01:39:00;;;;;;;21.17;11.38;;;;;;;;;;5038631;28;20036;-69
2023/09/13 01:41:45;;;;;;;22.52;10.43;;;;;;;;;;5055151;28;20044;-69
2023/09/13 01:44:12;;;;;;;30.73;10.15;;;;;;;;;;5055070;28;20094;-69
2023/09/13 01:46:43;;;;;;;23.55;10.32;;;;;;;;;;5055079;28;20443;-69
2023/09/13 01:49:10;;;;;;;15.90;10.20;;;;;;;;;;5038718;28;20063;-69
2023/09/13 01:51:37;;;;;;;18.88;9.32;;;;;;;;;;5056476;28;20501;-69
2023/09/13 01:54:03;;;;;;;17.50;10.68;;;;;;;;;;5038664;28;20076;-69
2023/09/13 01:56:28;;;;;;;24.83;10.98;;;;;;;;;;5038415;28;20056;-69
2023/09/13 01:58:55;;;;;;;19.33;9.65;;;;;;;;;;5071547;28;20074;-69
2023/09/13 02:01:21;;;;;;;23.17;10.50;;;;;;;;;;5038667;28;20522;-69
2023/09/13 02:03:48;;;;;;;45.13;12.32;;;;;;;;;;5071653;28;20478;-69
2023/09/13 02:06:15;;;;;;;57.55;13.35;;;;;;;;;;5056232;28;20028;-69
2023/09/13 02:08:42;;;;;;;40.60;10.80;;;;;;;;;;5038363;28;20043;-69
2023/09/13 02:11:08;;;;;;;40.22;11.02;;;;;;;;;;5054535;28;20054;-69
2023/09/13 02:13:34;;;;;;;33.38;10.52;;;;;;;;;;5037655;28;20056;-69
2023/09/13 02:16:02;;;;;;;35.90;10.82;;;;;;;;;;5054766;28;20379;-70
2023/09/13 02:18:30;;;;;;;30.60;11.52;;;;;;;;;;5037992;28;20564;-69
2023/09/13 02:20:57;;;;;;;25.50;9.60;;;;;;;;;;5054615;28;20384;-71
2023/09/13 02:23:24;;;;;;;26.02;9.20;;;;;;;;;;5014094;28;20049;-70
2023/09/13 02:25:52;;;;;;;30.75;9.50;;;;;;;;;;4997926;28;20069;-71
2023/09/13 02:28:19;;;;;;;24.23;9.13;;;;;;;;;;5014113;28;20362;-71
2023/09/13 02:30:46;;;;;;;31.33;9.32;;;;;;;;;;4997840;28;20038;-70
2023/09/13 02:33:11;;;;;;;25.50;9.57;;;;;;;;;;4997496;28;20045;-69
2023/09/13 02:35:37;;;;;;;26.65;9.93;;;;;;;;;;5013949;28;20040;-68
2023/09/13 02:38:03;;;;;;;35.20;9.43;;;;;;;;;;5013678;28;20091;-69
2023/09/13 02:40:29;;;;;;;28.00;8.68;;;;;;;;;;5013745;28;20399;-69
2023/09/13 02:42:55;;;;;;;27.65;9.40;;;;;;;;;;5013787;28;20045;-69
2023/09/13 02:45:21;;;;;;;29.95;8.98;;;;;;;;;;5014030;28;20079;-67
2023/09/13 02:47:47;;;;;;;27.58;8.40;;;;;;;;;;4981512;28;20040;-69
2023/09/13 02:50:13;;;;;;;30.88;8.98;;;;;;;;;;4997626;28;20355;-68
2023/09/13 02:52:38;;;;;;;37.05;9.60;;;;;;;;;;5014180;28;20039;-68
2023/09/13 02:55:08;;;;;;;60.15;11.75;;;;;;;;;;5042302;28;20479;-68
2023/09/13 02:57:35;;;;;;;116.70;14.27;;;;;;;;;;5070716;28;20089;-65
2023/09/13 03:00:04;;;;;;;168.23;20.45;;;;;;;;;;5054078;28;20037;-67
2023/09/13 03:02:32;;;;;;;133.05;17.63;;;;;;;;;;5071142;28;20489;-65
2023/09/13 03:04:58;;;;;;;86.15;15.40;;;;;;;;;;5053833;28;20032;-66
2023/09/13 03:07:24;;;;;;;92.75;13.85;;;;;;;;;;5054855;28;20109;-68
2023/09/13 03:09:54;;;;;;;51.40;11.20;;;;;;;;;;5054268;28;20033;-69
2023/09/13 03:12:21;;;;;;;62.80;11.63;;;;;;;;;;5037974;28;20036;-66
2023/09/13 03:14:48;;;;;;;80.18;13.48;;;;;;;;;;5054626;28;20562;-67
2023/09/13 03:17:14;;;;;;;34.97;12.07;;;;;;;;;;5055051;28;20043;-66
2023/09/13 03:19:40;;;;;;;20.27;11.23;;;;;;;;;;5037833;28;20029;-68
2023/09/13 03:22:06;;;;;;;22.00;11.50;;;;;;;;;;5054139;28;20035;-70
2023/09/13 03:24:32;;;;;;;28.30;12.07;;;;;;;;;;5070561;28;20036;-70
2023/09/13 03:26:57;;;;;;;25.30;11.40;;;;;;;;;;5057609;28;20120;-69
2023/09/13 03:29:23;;;;;;;20.33;10.73;;;;;;;;;;5074474;28;20040;-69
2023/09/13 03:31:50;;;;;;;18.08;10.60;;;;;;;;;;5074553;28;20062;-68
2023/09/13 03:34:16;;;;;;;21.73;11.02;;;;;;;;;;5074313;28;20054;-67
2023/09/13 03:36:43;;;;;;;25.92;11.25;;;;;;;;;;5057538;28;20032;-68
2023/09/13 03:39:09;;;;;;;22.58;11.48;;;;;;;;;;5074126;28;20418;-68
2023/09/13 03:41:35;;;;;;;21.85;11.32;;;;;;;;;;5057105;28;20070;-68
2023/09/13 03:44:03;;;;;;;21.85;11.18;;;;;;;;;;5055211;28;20098;-70
2023/09/13 03:46:29;;;;;;;19.55;10.95;;;;;;;;;;5055483;28;20036;-69
2023/09/13 03:48:57;;;;;;;25.63;11.55;;;;;;;;;;5072369;28;20462;-70
2023/09/13 03:51:23;;;;;;;16.95;10.85;;;;;;;;;;5072520;28;20040;-69
2023/09/13 03:53:49;;;;;;;19.73;10.82;;;;;;;;;;5040326;28;20063;-68
2023/09/13 03:56:15;;;;;;;16.08;10.82;;;;;;;;;;5056761;28;20040;-68
2023/09/13 03:58:41;;;;;;;17.10;11.18;;;;;;;;;;5057395;28;20366;-68
2023/09/13 04:01:06;;;;;;;25.90;12.05;;;;;;;;;;5057503;28;20040;-67
2023/09/13 04:03:32;;;;;;;24.45;11.85;;;;;;;;;;5073891;28;20194;-68
2023/09/13 04:06:05;;;;;;;16.50;10.85;;;;;;;;;;5057631;28;20040;-68
2023/09/13 04:08:49;;;;;;;20.13;11.48;;;;;;;;;;5057911;28;20096;-70
2023/09/13 04:15:02;;;;;;;19.65;10.90;;;;;;;;;;5079900;28;20041;-69
2023/09/13 04:17:29;;;;;;;26.77;10.48;;;;;;;;;;5074862;28;20126;-69
2023/09/13 04:19:55;;;;;;;20.25;10.75;;;;;;;;;;5057732;28;20132;-68
2023/09/13 04:22:22;;;;;;;16.83;10.40;;;;;;;;;;5074969;28;20045;-68
2023/09/13 04:24:53;;;;;;;19.77;10.80;;;;;;;;;;5058155;28;20375;-68
2023/09/13 04:27:23;;;;;;;14.30;9.70;;;;;;;;;;5040649;28;20044;-68
2023/09/13 04:29:48;;;;;;;15.13;9.88;;;;;;;;;;5057450;28;20029;-68
2023/09/13 04:32:21;;;;;;;20.42;9.95;;;;;;;;;;5057876;28;20113;-66
2023/09/13 04:34:53;;;;;;;20.25;10.57;;;;;;;;;;5041737;28;20113;-69
2023/09/13 04:37:38;;;;;;;21.98;11.23;;;;;;;;;;5090724;28;20037;-69
2023/09/13 04:40:08;;;;;;;21.63;12.70;;;;;;;;;;5040782;28;20451;-69
2023/09/13 04:42:52;;;;;;;28.17;11.75;;;;;;;;;;5040601;28;20079;-69
2023/09/13 04:45:19;;;;;;;25.33;10.70;;;;;;;;;;5057341;28;20040;-68
2023/09/13 04:47:46;;;;;;;21.58;10.63;;;;;;;;;;5073423;28;20433;-69
2023/09/13 04:50:12;;;;;;;17.42;9.70;;;;;;;;;;5056780;28;20029;-70
2023/09/13 04:52:37;;;;;;;25.63;10.00;;;;;;;;;;5040023;28;20059;-68
2023/09/13 04:55:05;;;;;;;19.33;9.63;;;;;;;;;;5073277;28;20075;-71
2023/09/13 04:57:31;;;;;;;19.98;8.82;;;;;;;;;;5073539;28;20051;-70
2023/09/13 04:59:57;;;;;;;25.85;8.88;;;;;;;;;;5073521;28;20390;-70
2023/09/13 05:02:23;;;;;;;24.63;8.73;;;;;;;;;;5056304;28;20054;-71
2023/09/13 05:04:49;;;;;;;20.83;9.27;;;;;;;;;;5040293;28;20033;-70
2023/09/13 05:07:14;;;;;;;17.95;9.07;;;;;;;;;;5072612;28;20037;-69
2023/09/13 05:09:40;;;;;;;25.05;9.35;;;;;;;;;;5073156;28;20396;-69
2023/09/13 05:12:06;;;;;;;23.77;10.40;;;;;;;;;;5040561;28;20060;-69
2023/09/13 05:14:37;;;;;;;18.65;9.68;;;;;;;;;;5059406;28;20459;-69
2023/09/13 05:17:04;;;;;;;23.92;11.52;;;;;;;;;;5073405;28;20059;-73
2023/09/13 05:19:31;;;;;;;24.92;10.68;;;;;;;;;;5074080;28;20044;-69
2023/09/13 05:21:57;;;;;;;26.95;11.95;;;;;;;;;;5056004;28;20043;-69
2023/09/13 05:24:25;;;;;;;31.02;11.60;;;;;;;;;;5039327;28;20037;-69
2023/09/13 05:26:52;;;;;;;18.90;10.75;;;;;;;;;;5072434;28;20067;-71
2023/09/13 05:29:17;;;;;;;40.95;11.75;;;;;;;;;;5073043;28;20044;-69
2023/09/13 05:31:43;;;;;;;23.48;11.07;;;;;;;;;;5045968;28;20062;-69
2023/09/13 05:34:09;;;;;;;37.05;11.65;;;;;;;;;;5054526;28;20059;-70
2023/09/13 05:36:35;;;;;;;30.60;10.35;;;;;;;;;;5054879;28;20044;-70
2023/09/13 05:39:00;;;;;;;32.03;11.15;;;;;;;;;;5071974;28;20070;-68
2023/09/13 05:41:26;;;;;;;28.95;10.93;;;;;;;;;;5071736;28;20541;-68
2023/09/13 05:43:52;;;;;;;28.58;10.82;;;;;;;;;;5057824;28;20497;-69
2023/09/13 05:46:17;;;;;;;28.63;9.95;;;;;;;;;;5018208;28;20387;-68
2023/09/13 05:48:43;;;;;;;23.75;9.43;;;;;;;;;;5027992;28;20068;-68
2023/09/13 05:51:09;;;;;;;29.48;9.57;;;;;;;;;;5050801;28;20036;-69
2023/09/13 05:53:36;;;;;;;31.05;8.98;;;;;;;;;;5034003;28;20503;-67
2023/09/13 05:56:03;;;;;;;24.90;8.63;;;;;;;;;;5050848;28;20055;-68
2023/09/13 05:58:29;;;;;;;29.13;9.43;;;;;;;;;;5033779;28;20028;-68
2023/09/13 06:00:55;;;;;;;22.58;8.55;;;;;;;;;;5017446;28;20044;-69
2023/09/13 06:03:21;;;;;;;26.83;8.35;;;;;;;;;;5017959;28;20119;-69
2023/09/13 06:05:51;;;;;;;25.58;8.50;;;;;;;;;;5066534;28;20049;-69
2023/09/13 06:08:17;;;;;;;18.20;8.48;;;;;;;;;;5037692;28;20033;-69
2023/09/13 06:10:45;;;;;;;19.65;7.70;;;;;;;;;;5053425;28;20064;-69
2023/09/13 06:13:11;;;;;;;22.33;8.25;;;;;;;;;;5037533;28;20115;-71
2023/09/13 06:15:36;;;;;;;16.40;7.80;;;;;;;;;;5037925;28;20066;-72
2023/09/13 06:18:02;;;;;;;26.42;8.05;;;;;;;;;;5051660;28;20564;-69
2023/09/13 06:20:28;;;;;;;17.33;8.10;;;;;;;;;;5044467;28;20057;-68
2023/09/13 06:22:55;;;;;;;20.08;8.38;;;;;;;;;;5091364;28;20031;-66
2023/09/13 06:25:21;;;;;;;24.35;7.97;;;;;;;;;;5084647;28;20028;-66
2023/09/13 06:27:47;;;;;;;35.78;9.57;;;;;;;;;;5070952;28;20029;-66
2023/09/13 06:30:15;;;;;;;29.55;8.57;;;;;;;;;;5045937;28;20039;-66
2023/09/13 06:32:41;;;;;;;25.77;8.88;;;;;;;;;;5054223;28;20048;-66
2023/09/13 06:35:12;;;;;;;42.08;9.00;;;;;;;;;;5058849;28;20043;-66
2023/09/13 06:37:38;;;;;;;41.78;8.82;;;;;;;;;;5072128;28;20131;-67
2023/09/13 06:40:04;;;;;;;34.92;8.70;;;;;;;;;;5082045;28;20197;-68
2023/09/13 06:42:32;;;;;;;38.25;10.77;;;;;;;;;;5074997;28;20356;-67
2023/09/13 06:44:59;;;;;;;45.95;9.80;;;;;;;;;;5106844;28;20415;-66
2023/09/13 06:47:28;;;;;;;46.15;9.90;;;;;;;;;;5108849;28;20028;-67
2023/09/13 06:49:56;;;;;;;53.35;9.80;;;;;;;;;;5090896;28;20016;-67
2023/09/13 06:52:21;;;;;;;44.85;9.25;;;;;;;;;;5082633;28;20032;-68
2023/09/13 06:54:47;;;;;;;43.13;9.60;;;;;;;;;;5100405;28;20044;-67
2023/09/13 06:57:13;;;;;;;47.25;9.48;;;;;;;;;;5091806;28;20039;-67
2023/09/13 06:59:39;;;;;;;41.63;8.73;;;;;;;;;;5091153;28;20035;-67
2023/09/13 07:02:05;;;;;;;35.95;8.45;;;;;;;;;;5091789;28;20040;-67
2023/09/13 07:04:30;;;;;;;29.75;8.32;;;;;;;;;;5056936;28;20562;-68
2023/09/13 07:06:56;;;;;;;24.90;7.20;;;;;;;;;;5074937;28;20122;-67
2023/09/13 07:09:22;;;;;;;32.50;7.50;;;;;;;;;;5074911;28;20028;-67
2023/09/13 07:11:48;;;;;;;36.63;8.00;;;;;;;;;;5072498;28;20056;-67
2023/09/13 07:14:13;;;;;;;28.83;6.68;;;;;;;;;;5085604;28;20056;-69
2023/09/13 07:16:39;;;;;;;22.10;5.80;;;;;;;;;;5077127;28;20039;-67
2023/09/13 07:19:04;;;;;;;18.75;6.13;;;;;;;;;;5080205;28;20051;-67
2023/09/13 07:21:30;;;;;;;26.88;5.32;;;;;;;;;;5053654;28;20024;-69
2023/09/13 07:23:55;;;;;;;13.23;4.53;;;;;;;;;;5086070;28;20049;-67
2023/09/13 07:26:21;;;;;;;8.02;4.45;;;;;;;;;;5048799;28;20094;-67
2023/09/13 07:28:47;;;;;;;13.15;4.75;;;;;;;;;;5057652;28;20043;-67
2023/09/13 07:31:13;;;;;;;10.52;4.93;;;;;;;;;;5075454;28;20074;-68
2023/09/13 07:33:39;;;;;;;13.80;4.88;;;;;;;;;;5091849;28;20036;-68
2023/09/13 07:36:05;;;;;;;15.70;4.40;;;;;;;;;;5086271;28;20029;-69
2023/09/13 07:38:30;;;;;;;15.13;4.15;;;;;;;;;;5071555;28;20045;-69
2023/09/13 07:40:57;;;;;;;13.52;3.10;;;;;;;;;;5088356;28;20466;-70
2023/09/13 07:43:22;;;;;;;10.75;3.40;;;;;;;;;;5073626;28;20134;-70
2023/09/13 07:45:49;;;;;;;13.70;3.60;;;;;;;;;;5087690;28;20118;-69
2023/09/13 07:48:14;;;;;;;14.18;3.75;;;;;;;;;;5070107;28;20441;-70
2023/09/13 07:50:40;;;;;;;11.07;2.60;;;;;;;;;;5085308;28;20040;-70
2023/09/13 07:53:07;;;;;;;8.10;2.83;;;;;;;;;;5056027;28;20055;-70
2023/09/13 07:55:33;;;;;;;13.18;3.25;;;;;;;;;;5071654;28;20036;-70
2023/09/13 07:57:59;;;;;;;5.72;2.63;;;;;;;;;;5084600;28;20449;-70
2023/09/13 08:00:25;;;;;;;11.27;2.58;;;;;;;;;;5089372;28;20028;-70
2023/09/13 08:02:51;;;;;;;9.57;2.70;;;;;;;;;;5071439;28;20036;-70
2023/09/13 08:05:17;;;;;;;13.13;3.15;;;;;;;;;;5070223;28;20143;-70
2023/09/13 08:07:44;;;;;;;7.43;2.72;;;;;;;;;;5066460;28;20040;-71
2023/09/13 08:10:10;;;;;;;11.10;2.60;;;;;;;;;;5070369;28;20032;-70
2023/09/13 08:12:36;;;;;;;9.77;2.50;;;;;;;;;;5066983;28;20461;-70
2023/09/13 08:15:03;;;;;;;5.78;2.30;;;;;;;;;;5060210;28;20445;-70
2023/09/13 08:17:34;;;;;;;5.45;2.05;;;;;;;;;;5076861;28;20035;-70
2023/09/13 08:20:00;;;;;;;4.53;2.03;;;;;;;;;;5058896;28;20043;-70
2023/09/13 08:22:26;;;;;;;7.88;2.28;;;;;;;;;;5076515;28;20131;-69
2023/09/13 08:24:52;;;;;;;5.40;2.20;;;;;;;;;;5093402;28;20146;-70
2023/09/13 08:27:17;;;;;;;8.50;2.90;;;;;;;;;;5043454;28;20082;-70
2023/09/13 08:29:43;;;;;;;9.52;2.72;;;;;;;;;;5075643;28;20484;-72
2023/09/13 08:32:09;;;;;;;7.50;2.20;;;;;;;;;;5075890;28;20522;-70
2023/09/13 08:34:35;;;;;;;6.88;2.65;;;;;;;;;;5092591;28;20044;-72
2023/09/13 08:37:01;;;;;;;7.13;2.70;;;;;;;;;;5075793;28;20043;-72
2023/09/13 08:39:27;;;;;;;9.02;2.40;;;;;;;;;;5075656;28;20085;-71
2023/09/13 08:41:54;;;;;;;7.43;2.70;;;;;;;;;;5092469;28;20051;-71
2023/09/13 08:44:20;;;;;;;9.52;3.22;;;;;;;;;;5093161;28;20078;-70
2023/09/13 08:46:50;;;;;;;3.45;1.75;;;;;;;;;;5076347;28;20036;-71
2023/09/13 08:49:19;;;;;;;5.90;1.70;;;;;;;;;;5093305;28;20081;-71
2023/09/13 08:51:46;;;;;;;10.38;2.72;;;;;;;;;;5093879;28;20031;-72
2023/09/13 08:54:12;;;;;;;7.03;1.65;;;;;;;;;;5076066;28;20054;-71
2023/09/13 08:56:39;;;;;;;3.80;1.50;;;;;;;;;;5059278;28;20054;-71
2023/09/13 08:59:04;;;;;;;7.70;2.50;;;;;;;;;;5075864;28;20438;-71
2023/09/13 09:01:30;;;;;;;7.80;2.10;;;;;;;;;;5093582;28;20034;-71
2023/09/13 09:03:56;;;;;;;4.40;2.10;;;;;;;;;;5057602;28;20355;-71
2023/09/13 09:06:23;;;;;;;6.13;2.22;;;;;;;;;;5058990;28;20031;-71
2023/09/13 09:08:50;;;;;;;8.10;1.60;;;;;;;;;;5059163;28;20039;-71
2023/09/13 09:11:17;;;;;;;6.43;2.20;;;;;;;;;;5057931;28;20109;-74
2023/09/13 09:13:44;;;;;;;5.83;1.90;;;;;;;;;;5059366;28;20135;-71
2023/09/13 09:16:10;;;;;;;11.68;6.38;;;;;;;;;;5059420;28;20130;-71
2023/09/13 09:18:37;;;;;;;15.05;9.93;;;;;;;;;;5058530;28;20101;-72
2023/09/13 09:21:03;;;;;;;9.82;5.15;;;;;;;;;;5037176;28;20474;-72
2023/09/13 09:23:29;;;;;;;8.55;2.58;;;;;;;;;;5037032;28;20044;-71
2023/09/13 09:25:55;;;;;;;3.70;1.90;;;;;;;;;;5021627;28;20048;-72
2023/09/13 09:28:22;;;;;;;4.78;1.90;;;;;;;;;;5021621;28;20036;-71
2023/09/13 09:30:50;;;;;;;6.63;2.17;;;;;;;;;;5038307;28;20040;-72
2023/09/13 09:33:25;;;;;;;7.43;2.53;;;;;;;;;;5038841;28;20028;-72
2023/09/13 09:35:54;;;;;;;5.47;1.90;;;;;;;;;;5021766;28;20098;-71
2023/09/13 09:38:21;;;;;;;7.13;2.40;;;;;;;;;;5038372;28;20418;-71
2023/09/13 09:40:47;;;;;;;6.30;1.80;;;;;;;;;;5038133;28;20040;-73
2023/09/13 09:43:13;;;;;;;8.93;1.83;;;;;;;;;;5021548;28;20106;-71
2023/09/13 09:45:38;;;;;;;9.95;2.25;;;;;;;;;;5021198;28;20028;-70
2023/09/13 09:48:04;;;;;;;5.15;1.90;;;;;;;;;;5037747;28;20032;-70
2023/09/13 09:50:31;;;;;;;7.10;2.55;;;;;;;;;;5037640;28;20340;-70
2023/09/13 09:52:57;;;;;;;7.45;1.90;;;;;;;;;;5071077;28;20046;-70
2023/09/13 09:55:25;;;;;;;3.47;1.80;;;;;;;;;;5075377;28;20123;-70
2023/09/13 09:57:52;;;;;;;3.95;1.80;;;;;;;;;;5075154;28;20067;-70
2023/09/13 10:00:18;;;;;;;11.35;2.45;;;;;;;;;;5092311;28;20343;-70
2023/09/13 10:02:44;;;;;;;4.10;1.80;;;;;;;;;;5075375;28;20053;-70
2023/09/13 10:05:13;;;;;;;5.70;1.80;;;;;;;;;;5058120;28;20043;-70
2023/09/13 10:07:43;;;;;;;3.08;1.60;;;;;;;;;;5092695;28;20079;-70
2023/09/13 10:10:09;;;;;;;4.70;1.65;;;;;;;;;;5091826;28;20036;-70
2023/09/13 10:12:45;;;;;;;4.22;2.05;;;;;;;;;;5091897;28;20394;-70
2023/09/13 10:15:11;;;;;;;6.13;1.70;;;;;;;;;;5058548;28;20039;-71
2023/09/13 10:17:39;;;;;;;4.30;1.35;;;;;;;;;;5074920;28;20043;-71
2023/09/13 10:20:06;;;;;;;6.13;1.87;;;;;;;;;;5091701;28;20106;-70
2023/09/13 10:22:34;;;;;;;4.55;2.00;;;;;;;;;;5092113;28;20047;-71
2023/09/13 10:25:03;;;;;;;8.43;1.80;;;;;;;;;;5058015;28;20032;-71
2023/09/13 10:27:30;;;;;;;12.98;2.00;;;;;;;;;;5058321;28;20032;-70
2023/09/13 10:29:57;;;;;;;6.65;1.70;;;;;;;;;;5074502;28;20047;-70
2023/09/13 10:32:26;;;;;;;6.15;1.80;;;;;;;;;;5091530;28;20032;-70
2023/09/13 10:34:56;;;;;;;5.32;1.70;;;;;;;;;;5041426;28;20048;-70
2023/09/13 10:37:22;;;;;;;7.22;1.80;;;;;;;;;;5091417;28;20032;-71
2023/09/13 10:39:51;;;;;;;7.53;1.88;;;;;;;;;;5074847;28;20093;-70
2023/09/13 10:42:17;;;;;;;4.10;1.80;;;;;;;;;;5057935;28;20466;-70
2023/09/13 10:44:44;;;;;;;1.70;1.60;;;;;;;;;;5074398;28;20102;-70
2023/09/13 10:47:11;;;;;;;4.10;1.67;;;;;;;;;;5091008;28;20532;-70
2023/09/13 10:49:37;;;;;;;5.88;2.00;;;;;;;;;;5057489;28;20181;-70
2023/09/13 10:52:03;;;;;;;6.00;2.00;;;;;;;;;;5057674;28;20032;-70
2023/09/13 10:54:30;;;;;;;3.35;1.92;;;;;;;;;;5074386;28;20032;-70
2023/09/13 10:56:56;;;;;;;9.25;1.88;;;;;;;;;;5074132;28;20036;-70
2023/09/13 10:59:24;;;;;;;3.35;1.70;;;;;;;;;;5057522;28;20028;-71
2023/09/13 11:01:50;;;;;;;7.22;1.90;;;;;;;;;;5074497;28;20054;-70
2023/09/13 11:04:17;;;;;;;8.75;1.98;;;;;;;;;;5057560;28;20036;-70
2023/09/13 11:06:44;;;;;;;8.50;1.80;;;;;;;;;;5057457;28;20040;-70
2023/09/13 11:09:10;;;;;;;6.55;2.08;;;;;;;;;;5057476;28;20114;-70
2023/09/13 11:11:36;;;;;;;2.70;1.50;;;;;;;;;;5090652;28;20070;-70
2023/09/13 11:14:06;;;;;;;6.15;1.60;;;;;;;;;;5057426;28;20028;-70
2023/09/13 11:16:32;;;;;;;10.00;1.70;;;;;;;;;;5090868;28;20040;-70
2023/09/13 11:19:03;;;;;;;5.18;1.67;;;;;;;;;;5057352;28;20028;-70
2023/09/13 11:21:45;;;;;;;10.80;1.92;;;;;;;;;;5074343;28;20081;-70
2023/09/13 11:24:10;;;;;;;3.90;1.83;;;;;;;;;;5074109;28;20078;-70
2023/09/13 11:26:45;;;;;;;7.05;1.75;;;;;;;;;;5074184;28;20036;-69
2023/09/13 11:29:25;;;;;;;4.70;1.83;;;;;;;;;;5074165;28;20126;-70
2023/09/13 11:32:00;;;;;;;10.05;1.73;;;;;;;;;;5092484;28;20077;-69
2023/09/13 11:34:27;;;;;;;3.45;1.60;;;;;;;;;;5074330;28;20028;-70
2023/09/13 11:36:56;;;;;;;5.82;2.20;;;;;;;;;;5073947;28;20056;-70
2023/09/13 11:39:22;;;;;;;4.80;2.15;;;;;;;;;;5073959;28;20036;-69
2023/09/13 11:41:48;;;;;;;6.60;2.10;;;;;;;;;;5073971;28;20043;-69
2023/09/13 11:44:14;;;;;;;6.38;1.80;;;;;;;;;;5057187;28;20044;-69
2023/09/13 11:46:39;;;;;;;4.38;2.15;;;;;;;;;;5058524;28;20085;-69
2023/09/13 11:49:05;;;;;;;4.18;2.08;;;;;;;;;;5077785;28;20043;-69
2023/09/13 11:51:32;;;;;;;3.53;1.98;;;;;;;;;;5077387;28;20075;-68
2023/09/13 11:54:11;;;;;;;4.82;2.20;;;;;;;;;;5094956;28;20058;-68
2023/09/13 11:56:41;;;;;;;4.97;2.13;;;;;;;;;;5079371;28;20032;-71
2023/09/13 11:59:07;;;;;;;6.20;2.30;;;;;;;;;;5080388;28;20043;-69
2023/09/13 12:01:33;;;;;;;4.20;2.10;;;;;;;;;;5079084;28;20096;-68
2023/09/13 12:04:03;;;;;;;7.57;2.10;;;;;;;;;;5077650;28;20035;-69
2023/09/13 12:06:29;;;;;;;7.13;2.30;;;;;;;;;;5053046;28;20051;-69
2023/09/13 12:08:56;;;;;;;6.32;2.10;;;;;;;;;;5029730;28;20150;-69
2023/09/13 12:11:22;;;;;;;7.72;2.28;;;;;;;;;;4997069;28;20057;-69
2023/09/13 12:13:52;;;;;;;5.85;2.15;;;;;;;;;;5013422;28;20438;-69
2023/09/13 12:16:19;;;;;;;9.50;2.22;;;;;;;;;;4996867;28;20480;-71
2023/09/13 12:18:46;;;;;;;10.50;2.58;;;;;;;;;;5029881;28;20041;-68
2023/09/13 12:21:12;;;;;;;8.55;2.58;;;;;;;;;;5013015;28;20463;-69
2023/09/13 12:23:40;;;;;;;5.50;2.33;;;;;;;;;;4992988;28;20046;-70
2023/09/13 12:26:07;;;;;;;10.15;3.00;;;;;;;;;;4977130;28;20053;-69
2023/09/13 12:28:37;;;;;;;8.40;2.45;;;;;;;;;;4977103;28;20038;-68
2023/09/13 12:31:05;;;;;;;7.65;2.95;;;;;;;;;;4993275;28;20512;-69
2023/09/13 12:33:31;;;;;;;11.30;2.90;;;;;;;;;;4993060;28;20034;-68
2023/09/13 12:35:57;;;;;;;6.32;3.05;;;;;;;;;;4977424;28;20038;-71
2023/09/13 12:38:24;;;;;;;8.98;2.97;;;;;;;;;;5029005;28;20072;-69
2023/09/13 12:40:52;;;;;;;8.25;2.90;;;;;;;;;;5015897;28;20553;-69
2023/09/13 12:43:19;;;;;;;10.02;2.75;;;;;;;;;;5032300;28;20041;-68
2023/09/13 12:45:44;;;;;;;4.28;2.40;;;;;;;;;;5032344;28;20045;-68
2023/09/13 12:48:12;;;;;;;6.75;2.40;;;;;;;;;;5032192;28;20087;-68
2023/09/13 12:50:37;;;;;;;7.18;3.00;;;;;;;;;;5015659;28;20441;-68
2023/09/13 12:53:03;;;;;;;10.05;2.70;;;;;;;;;;5023651;28;20331;-68
2023/09/13 12:55:30;;;;;;;11.02;2.85;;;;;;;;;;5088213;28;20142;-69
2023/09/13 12:58:06;;;;;;;13.18;2.90;;;;;;;;;;5076803;28;20051;-69
2023/09/13 13:00:46;;;;;;;6.88;2.92;;;;;;;;;;5059217;28;20078;-69
2023/09/13 13:03:12;;;;;;;9.68;2.60;;;;;;;;;;5076922;28;20039;-69
2023/09/13 13:05:42;;;;;;;4.68;3.05;;;;;;;;;;5093362;28;20097;-70
2023/09/13 13:08:10;;;;;;;8.70;2.67;;;;;;;;;;5093347;28;20039;-70
2023/09/13 13:11:11;;;;;;;8.32;2.60;;;;;;;;;;5059733;28;20109;-70
2023/09/13 13:13:37;;;;;;;8.05;3.03;;;;;;;;;;5015305;28;20041;-69
2023/09/13 13:16:23;;;;;;;8.45;3.10;;;;;;;;;;5031817;28;20143;-70
2023/09/13 13:18:51;;;;;;;11.40;2.72;;;;;;;;;;4998730;28;20037;-69
2023/09/13 13:21:17;;;;;;;8.90;2.60;;;;;;;;;;5015128;28;20045;-69
2023/09/13 13:23:47;;;;;;;7.72;2.88;;;;;;;;;;5031445;28;20049;-69
2023/09/13 13:26:17;;;;;;;7.35;2.65;;;;;;;;;;5031867;28;20049;-69
2023/09/13 13:28:43;;;;;;;;;;;;;;;;;;5075191;28;20078;-69
2023/09/13 13:31:09;;;;;;;7.00;2.85;;;;;;;;;;5075948;28;19912;-70
2023/09/13 13:33:36;;;;;;;7.50;2.65;;;;;;;;;;5076705;28;20066;-69
2023/09/13 13:36:02;;;;;;;10.18;2.70;;;;;;;;;;5076250;28;20032;-69
2023/09/13 13:38:28;;;;;;;9.40;2.60;;;;;;;;;;5059781;28;20031;-69
2023/09/13 13:41:08;;;;;;;6.05;2.92;;;;;;;;;;5058827;28;20477;-70
2023/09/13 13:43:34;;;;;;;8.80;2.90;;;;;;;;;;5092510;28;20048;-69
2023/09/13 13:46:00;;;;;;;7.15;2.35;;;;;;;;;;5075628;28;20036;-72
2023/09/13 13:48:27;;;;;;;5.07;2.97;;;;;;;;;;5092512;28;20557;-70
2023/09/13 13:50:53;;;;;;;8.88;3.10;;;;;;;;;;5075702;28;20036;-69
2023/09/13 13:53:26;;;;;;;10.20;3.13;;;;;;;;;;5093006;28;20036;-69
2023/09/13 13:55:55;;;;;;;10.00;4.45;;;;;;;;;;5059087;28;20028;-69
2023/09/13 13:58:21;;;;;;;8.35;3.97;;;;;;;;;;5058259;28;20039;-69
2023/09/13 14:00:48;;;;;;;9.75;3.05;;;;;;;;;;5058261;28;20028;-69
2023/09/13 14:03:14;;;;;;;14.77;5.00;;;;;;;;;;5074909;28;20394;-69
2023/09/13 14:05:40;;;;;;;10.27;4.35;;;;;;;;;;5074845;28;20040;-69
2023/09/13 14:08:09;;;;;;;11.00;6.05;;;;;;;;;;5074930;28;20043;-69
2023/09/13 14:10:39;;;;;;;11.50;3.85;;;;;;;;;;5057520;28;20059;-69
2023/09/13 14:13:06;;;;;;;8.25;3.15;;;;;;;;;;5074560;28;20082;-70
2023/09/13 14:15:32;;;;;;;11.73;3.70;;;;;;;;;;5013929;28;20420;-72
2023/09/13 14:17:58;;;;;;;8.93;3.35;;;;;;;;;;4978464;28;20060;-70
2023/09/13 14:20:24;;;;;;;7.70;3.15;;;;;;;;;;4994934;28;20033;-70
2023/09/13 14:22:52;;;;;;;5.82;3.15;;;;;;;;;;4994784;28;20045;-70
2023/09/13 14:25:19;;;;;;;9.98;3.78;;;;;;;;;;5012457;28;20072;-70
2023/09/13 14:27:45;;;;;;;6.00;3.08;;;;;;;;;;4996079;28;20076;-69
2023/09/13 14:30:12;;;;;;;5.25;2.70;;;;;;;;;;4974798;28;20077;-69
2023/09/13 14:32:38;;;;;;;8.63;2.75;;;;;;;;;;4974627;28;20420;-70
2023/09/13 14:35:04;;;;;;;5.60;3.40;;;;;;;;;;4942462;28;20073;-70